createdAt,value
2022-10-22T00:01:14.605Z,16.58
2022-10-22T00:11:20.706Z,16.52
2022-10-22T00:21:23.995Z,16.54
2022-10-22T00:31:28.488Z,16.58
2022-10-22T00:41:31.544Z,16.57
2022-10-22T00:51:37.105Z,16.55
2022-10-22T01:01:40.281Z,16.56
2022-10-22T01:11:55.548Z,16.53
2022-10-22T01:22:06.007Z,16.50
2022-10-22T01:32:15.561Z,16.48
2022-10-22T01:42:18.658Z,16.40
2022-10-22T01:52:32.989Z,16.50
2022-10-22T02:02:42.204Z,16.59
2022-10-22T02:12:49.920Z,16.67
2022-10-22T02:22:53.392Z,16.56
2022-10-22T02:33:03.693Z,16.55
2022-10-22T02:43:07.418Z,16.43
2022-10-22T02:53:11.583Z,16.40
2022-10-22T03:03:14.374Z,16.40
2022-10-22T03:13:18.652Z,16.47
2022-10-22T03:23:21.560Z,16.56
2022-10-22T03:33:26.120Z,16.53
2022-10-22T03:43:29.432Z,16.45
2022-10-22T03:53:33.713Z,16.30
2022-10-22T04:03:37.211Z,16.23
2022-10-22T04:13:41.757Z,16.24
2022-10-22T04:23:46.323Z,16.27
2022-10-22T04:33:53.666Z,16.22
2022-10-22T04:43:58.073Z,16.14
2022-10-22T04:54:02.614Z,16.15
2022-10-22T05:04:08.252Z,15.88
2022-10-22T05:14:13.506Z,15.67
2022-10-22T05:24:16.572Z,15.45
2022-10-22T05:34:20.982Z,15.60
2022-10-22T05:44:23.817Z,15.66
2022-10-22T05:54:28.060Z,15.56
2022-10-22T06:04:30.926Z,15.37
2022-10-22T06:14:35.355Z,15.18
2022-10-22T06:24:40.452Z,15.06
2022-10-22T06:34:48.329Z,15.05
2022-10-22T06:44:51.357Z,15.23
2022-10-22T06:54:55.676Z,15.40
2022-10-22T07:04:58.694Z,15.43
2022-10-22T07:15:02.861Z,15.66
2022-10-22T07:25:07.467Z,15.81
2022-10-22T07:35:12.082Z,16.15
2022-10-22T07:45:14.935Z,16.32
2022-10-22T07:55:19.108Z,16.64
2022-10-22T08:05:21.923Z,16.66
2022-10-22T08:15:27.293Z,16.65
2022-10-22T08:25:30.323Z,16.89
2022-10-22T08:35:34.464Z,17.16
2022-10-22T08:45:42.167Z,17.01
2022-10-22T08:55:47.042Z,17.06
2022-10-22T09:06:02.805Z,17.03
2022-10-22T09:16:17.305Z,17.06
2022-10-22T09:26:22.626Z,17.15
2022-10-22T09:36:30.479Z,17.16
2022-10-22T09:46:44.118Z,17.30
2022-10-22T09:57:03.478Z,17.47
2022-10-22T10:07:17.211Z,17.46
2022-10-22T10:17:29.079Z,17.45
2022-10-22T10:27:38.099Z,17.52
2022-10-22T10:37:50.519Z,17.72
2022-10-22T10:48:09.354Z,17.78
2022-10-22T10:58:23.052Z,17.78
2022-10-22T11:08:31.223Z,17.90
2022-10-22T11:18:40.365Z,18.01
2022-10-22T11:28:46.971Z,17.89
2022-10-22T11:38:52.254Z,17.81
2022-10-22T11:49:19.165Z,17.85
2022-10-22T11:59:39.968Z,17.85
2022-10-22T12:09:43.332Z,18.01
2022-10-22T12:19:50.176Z,18.02
2022-10-22T12:29:56.470Z,18.98
2022-10-22T12:40:01.851Z,18.91
2022-10-22T12:50:05.677Z,19.22
2022-10-22T13:00:22.261Z,19.50
2022-10-22T13:10:27.427Z,19.18
2022-10-22T13:20:32.658Z,18.99
2022-10-22T13:30:37.731Z,19.31
2022-10-22T13:40:42.351Z,19.48
2022-10-22T13:50:45.580Z,19.77
2022-10-22T14:00:52.470Z,19.88
2022-10-22T14:10:55.864Z,19.61
2022-10-22T14:21:04.853Z,19.66
2022-10-22T14:31:09.731Z,19.58
2022-10-22T14:41:20.839Z,19.34
2022-10-22T14:51:24.048Z,19.30
2022-10-22T15:01:28.238Z,19.33
2022-10-22T15:11:31.240Z,19.27
2022-10-22T15:21:35.484Z,19.18
2022-10-22T15:31:47.906Z,19.08
2022-10-22T15:41:52.951Z,19.13
2022-10-22T15:51:56.919Z,19.10
2022-10-22T16:02:01.567Z,18.89
2022-10-22T16:12:04.544Z,18.82
2022-10-22T16:22:11.571Z,18.84
2022-10-22T16:32:16.209Z,18.80
2022-10-22T16:42:20.604Z,18.72
2022-10-22T16:52:23.707Z,18.51
2022-10-22T17:02:28.018Z,18.39
2022-10-22T17:12:35.156Z,18.35
2022-10-22T17:22:39.496Z,18.29
2022-10-22T17:32:42.430Z,18.10
2022-10-22T17:42:46.911Z,17.91
2022-10-22T17:52:50.596Z,17.59
2022-10-22T18:02:54.947Z,17.73
2022-10-22T18:12:57.715Z,17.52
2022-10-22T18:23:03.628Z,17.35
2022-10-22T18:33:06.646Z,17.21
2022-10-22T18:43:11.043Z,17.25
2022-10-22T18:53:16.558Z,17.37
2022-10-22T19:03:20.993Z,17.34
2022-10-22T19:13:25.721Z,16.98
2022-10-22T19:23:31.300Z,16.82
2022-10-22T19:33:35.811Z,16.60
2022-10-22T19:43:40.035Z,16.62
2022-10-22T19:53:43.096Z,16.61
2022-10-22T20:03:47.728Z,16.67
2022-10-22T20:13:53.454Z,16.66
2022-10-22T20:23:58.660Z,16.80
2022-10-22T20:34:02.788Z,16.83
2022-10-22T20:44:08.431Z,16.73
2022-10-22T20:54:12.110Z,16.93
2022-10-22T21:04:17.998Z,16.84
2022-10-22T21:14:23.160Z,16.86
2022-10-22T21:24:27.679Z,16.62
2022-10-22T21:34:33.251Z,16.42
2022-10-22T21:44:40.223Z,16.27
2022-10-22T21:54:43.262Z,16.24
2022-10-22T22:04:47.931Z,16.18
2022-10-22T22:14:50.699Z,16.16
2022-10-22T22:24:55.404Z,16.14
2022-10-22T22:34:58.426Z,16.22
2022-10-22T22:45:02.966Z,16.30
2022-10-22T22:55:06.877Z,16.11
2022-10-22T23:05:11.494Z,15.73
2022-10-22T23:15:14.517Z,15.55
2022-10-22T23:25:19.001Z,15.64
2022-10-22T23:35:22.314Z,15.70
2022-10-22T23:45:26.515Z,15.64
2022-10-22T23:55:29.471Z,15.36
